sensor_id;sensor_type;location;lat;lon;timestamp;P1;durP1;ratioP1;P2;durP2;ratioP2
69404;SDS011;57084;52.046;5.632;2022-08-19T00:00:00;10.4;;;4.3;;
69404;SDS011;57084;52.046;5.632;2022-08-19T00:01:00;10.4;;;4.3;;
69404;SDS011;57084;52.046;5.632;2022-08-19T00:02:00;10.4;;;4.3;;
69404;SDS011;57084;52.046;5.632;2022-08-19T00:03:00;10.4;;;4.3;;
69404;SDS011;57084;52.046;5.632;2022-08-19T00:04:04;9.4;;;4.3;;
69404;SDS011;57084;52.046;5.632;2022-08-19T00:05:00;9.4;;;4.3;;
69404;SDS011;57084;52.046;5.632;2022-08-19T00:06:00;9.4;;;4.3;;
69404;SDS011;57084;52.046;5.632;2022-08-19T00:07:00;9.4;;;4.3;;
69404;SDS011;57084;52.046;5.632;2022-08-19T00:08:00;9.4;;;4.3;;
69404;SDS011;57084;52.046;5.632;2022-08-19T00:09:00;8.3;;;4.0;;
69404;SDS011;57084;52.046;5.632;2022-08-19T00:10:00;8.3;;;4.0;;
69404;SDS011;57084;52.046;5.632;2022-08-19T00:11:00;8.3;;;4.0;;
69404;SDS011;57084;52.046;5.632;2022-08-19T00:12:00;8.3;;;4.0;;
69404;SDS011;57084;52.046;5.632;2022-08-19T00:13:00;8.3;;;4.0;;
69404;SDS011;57084;52.046;5.632;2022-08-19T00:14:00;10.6;;;4.3;;
69404;SDS011;57084;52.046;5.632;2022-08-19T00:15:00;10.6;;;4.3;;
69404;SDS011;57084;52.046;5.632;2022-08-19T00:16:00;10.6;;;4.3;;
69404;SDS011;57084;52.046;5.632;2022-08-19T00:17:00;10.6;;;4.3;;
69404;SDS011;57084;52.046;5.632;2022-08-19T00:18:00;10.6;;;4.3;;
69404;SDS011;57084;52.046;5.632;2022-08-19T00:19:00;8.9;;;4.6;;
69404;SDS011;57084;52.046;5.632;2022-08-19T00:20:00;8.9;;;4.6;;
69404;SDS011;57084;52.046;5.632;2022-08-19T00:21:00;8.9;;;4.6;;
69404;SDS011;57084;52.046;5.632;2022-08-19T00:22:00;8.9;;;4.6;;
69404;SDS011;57084;52.046;5.632;2022-08-19T00:23:00;8.9;;;4.6;;
69404;SDS011;57084;52.046;5.632;2022-08-19T00:24:00;8.1;;;3.8;;
69404;SDS011;57084;52.046;5.632;2022-08-19T00:25:00;8.1;;;3.8;;
69404;SDS011;57084;52.046;5.632;2022-08-19T00:26:00;8.1;;;3.8;;
69404;SDS011;57084;52.046;5.632;2022-08-19T00:27:00;8.1;;;3.8;;
69404;SDS011;57084;52.046;5.632;2022-08-19T00:28:00;8.1;;;3.8;;
69404;SDS011;57084;52.046;5.632;2022-08-19T00:29:00;8.2;;;4.1;;
69404;SDS011;57084;52.046;5.632;2022-08-19T00:30:00;8.2;;;4.1;;
69404;SDS011;57084;52.046;5.632;2022-08-19T00:31:00;8.2;;;4.1;;
69404;SDS011;57084;52.046;5.632;2022-08-19T00:32:00;8.2;;;4.1;;
69404;SDS011;57084;52.046;5.632;2022-08-19T00:33:00;8.2;;;4.1;;
69404;SDS011;57084;52.046;5.632;2022-08-19T00:34:00;7.7;;;4.0;;
69404;SDS011;57084;52.046;5.632;2022-08-19T00:35:00;7.7;;;4.0;;
69404;SDS011;57084;52.046;5.632;2022-08-19T00:36:00;7.7;;;4.0;;
69404;SDS011;57084;52.046;5.632;2022-08-19T00:37:00;7.7;;;4.0;;
69404;SDS011;57084;52.046;5.632;2022-08-19T00:38:00;7.7;;;4.0;;
69404;SDS011;57084;52.046;5.632;2022-08-19T00:39:00;8.0;;;4.1;;
69404;SDS011;57084;52.046;5.632;2022-08-19T00:40:00;8.0;;;4.1;;
69404;SDS011;57084;52.046;5.632;2022-08-19T00:41:00;8.0;;;4.1;;
69404;SDS011;57084;52.046;5.632;2022-08-19T00:42:00;8.0;;;4.1;;
69404;SDS011;57084;52.046;5.632;2022-08-19T00:43:00;8.0;;;4.1;;
69404;SDS011;57084;52.046;5.632;2022-08-19T00:44:01;8.2;;;4.1;;
69404;SDS011;57084;52.046;5.632;2022-08-19T00:45:00;8.2;;;4.1;;
69404;SDS011;57084;52.046;5.632;2022-08-19T00:46:00;8.2;;;4.1;;
69404;SDS011;57084;52.046;5.632;2022-08-19T00:47:00;8.2;;;4.1;;
69404;SDS011;57084;52.046;5.632;2022-08-19T00:48:00;8.2;;;4.1;;
69404;SDS011;57084;52.046;5.632;2022-08-19T00:49:10;10.2;;;4.3;;
69404;SDS011;57084;52.046;5.632;2022-08-19T00:50:00;10.2;;;4.3;;
69404;SDS011;57084;52.046;5.632;2022-08-19T00:51:01;10.2;;;4.3;;
69404;SDS011;57084;52.046;5.632;2022-08-19T00:52:02;10.2;;;4.3;;
69404;SDS011;57084;52.046;5.632;2022-08-19T00:53:00;10.2;;;4.3;;
69404;SDS011;57084;52.046;5.632;2022-08-19T00:54:01;8.2;;;4.3;;
69404;SDS011;57084;52.046;5.632;2022-08-19T00:55:01;8.2;;;4.3;;
69404;SDS011;57084;52.046;5.632;2022-08-19T00:56:01;8.2;;;4.3;;
69404;SDS011;57084;52.046;5.632;2022-08-19T00:57:02;8.2;;;4.3;;
69404;SDS011;57084;52.046;5.632;2022-08-19T00:58:02;8.2;;;4.3;;
69404;SDS011;57084;52.046;5.632;2022-08-19T00:59:01;9.5;;;4.5;;
69404;SDS011;57084;52.046;5.632;2022-08-19T01:00:01;9.5;;;4.5;;
69404;SDS011;57084;52.046;5.632;2022-08-19T01:01:00;9.5;;;4.5;;
69404;SDS011;57084;52.046;5.632;2022-08-19T01:02:00;9.5;;;4.5;;
69404;SDS011;57084;52.046;5.632;2022-08-19T01:03:00;9.5;;;4.5;;
69404;SDS011;57084;52.046;5.632;2022-08-19T01:04:00;13.4;;;4.6;;
69404;SDS011;57084;52.046;5.632;2022-08-19T01:05:02;13.4;;;4.6;;
69404;SDS011;57084;52.046;5.632;2022-08-19T01:06:00;13.4;;;4.6;;
69404;SDS011;57084;52.046;5.632;2022-08-19T01:07:01;13.4;;;4.6;;
69404;SDS011;57084;52.046;5.632;2022-08-19T01:08:02;13.4;;;4.6;;
69404;SDS011;57084;52.046;5.632;2022-08-19T01:09:00;10.7;;;4.9;;
69404;SDS011;57084;52.046;5.632;2022-08-19T01:10:00;10.7;;;4.9;;
69404;SDS011;57084;52.046;5.632;2022-08-19T01:11:00;10.7;;;4.9;;
69404;SDS011;57084;52.046;5.632;2022-08-19T01:12:00;10.7;;;4.9;;
69404;SDS011;57084;52.046;5.632;2022-08-19T01:13:01;10.7;;;4.9;;
69404;SDS011;57084;52.046;5.632;2022-08-19T01:14:00;9.7;;;4.9;;
69404;SDS011;57084;52.046;5.632;2022-08-19T01:15:00;9.7;;;4.9;;
69404;SDS011;57084;52.046;5.632;2022-08-19T01:16:03;9.7;;;4.9;;
69404;SDS011;57084;52.046;5.632;2022-08-19T01:17:00;9.7;;;4.9;;
69404;SDS011;57084;52.046;5.632;2022-08-19T01:18:06;9.7;;;4.9;;
69404;SDS011;57084;52.046;5.632;2022-08-19T01:19:01;8.3;;;4.5;;
69404;SDS011;57084;52.046;5.632;2022-08-19T01:20:00;8.3;;;4.5;;
69404;SDS011;57084;52.046;5.632;2022-08-19T01:21:02;8.3;;;4.5;;
69404;SDS011;57084;52.046;5.632;2022-08-19T01:22:03;8.3;;;4.5;;
69404;SDS011;57084;52.046;5.632;2022-08-19T01:23:00;8.3;;;4.5;;
69404;SDS011;57084;52.046;5.632;2022-08-19T01:24:00;8.8;;;4.7;;
69404;SDS011;57084;52.046;5.632;2022-08-19T01:25:00;8.8;;;4.7;;
69404;SDS011;57084;52.046;5.632;2022-08-19T01:26:00;8.8;;;4.7;;
69404;SDS011;57084;52.046;5.632;2022-08-19T01:27:03;8.8;;;4.7;;
69404;SDS011;57084;52.046;5.632;2022-08-19T01:28:00;8.8;;;4.7;;
69404;SDS011;57084;52.046;5.632;2022-08-19T01:29:00;9.4;;;4.4;;
69404;SDS011;57084;52.046;5.632;2022-08-19T01:30:00;9.4;;;4.4;;
69404;SDS011;57084;52.046;5.632;2022-08-19T01:31:00;9.4;;;4.4;;
69404;SDS011;57084;52.046;5.632;2022-08-19T01:32:00;9.4;;;4.4;;
69404;SDS011;57084;52.046;5.632;2022-08-19T01:33:00;9.4;;;4.4;;
69404;SDS011;57084;52.046;5.632;2022-08-19T01:34:01;9.8;;;5.2;;
69404;SDS011;57084;52.046;5.632;2022-08-19T01:35:00;9.8;;;5.2;;
69404;SDS011;57084;52.046;5.632;2022-08-19T01:36:06;9.8;;;5.2;;
69404;SDS011;57084;52.046;5.632;2022-08-19T01:37:05;9.8;;;5.2;;
69404;SDS011;57084;52.046;5.632;2022-08-19T01:38:02;9.8;;;5.2;;
69404;SDS011;57084;52.046;5.632;2022-08-19T01:39:00;9.7;;;5.1;;
69404;SDS011;57084;52.046;5.632;2022-08-19T01:40:00;9.7;;;5.1;;
69404;SDS011;57084;52.046;5.632;2022-08-19T01:41:00;9.7;;;5.1;;
69404;SDS011;57084;52.046;5.632;2022-08-19T01:42:00;9.7;;;5.1;;
69404;SDS011;57084;52.046;5.632;2022-08-19T01:43:01;9.7;;;5.1;;
69404;SDS011;57084;52.046;5.632;2022-08-19T01:44:00;9.6;;;4.6;;
69404;SDS011;57084;52.046;5.632;2022-08-19T01:45:00;9.6;;;4.6;;
69404;SDS011;57084;52.046;5.632;2022-08-19T01:46:00;9.6;;;4.6;;
69404;SDS011;57084;52.046;5.632;2022-08-19T01:47:00;9.6;;;4.6;;
69404;SDS011;57084;52.046;5.632;2022-08-19T01:48:00;9.6;;;4.6;;
69404;SDS011;57084;52.046;5.632;2022-08-19T01:49:01;8.7;;;4.7;;
69404;SDS011;57084;52.046;5.632;2022-08-19T01:50:00;8.7;;;4.7;;
69404;SDS011;57084;52.046;5.632;2022-08-19T01:51:00;8.7;;;4.7;;
69404;SDS011;57084;52.046;5.632;2022-08-19T01:52:00;8.7;;;4.7;;
69404;SDS011;57084;52.046;5.632;2022-08-19T01:53:01;8.7;;;4.7;;
69404;SDS011;57084;52.046;5.632;2022-08-19T01:54:00;8.7;;;4.7;;
69404;SDS011;57084;52.046;5.632;2022-08-19T01:55:00;10.6;;;4.9;;
69404;SDS011;57084;52.046;5.632;2022-08-19T01:56:01;10.6;;;4.9;;
69404;SDS011;57084;52.046;5.632;2022-08-19T01:57:03;10.6;;;4.9;;
69404;SDS011;57084;52.046;5.632;2022-08-19T01:58:02;10.6;;;4.9;;
69404;SDS011;57084;52.046;5.632;2022-08-19T01:59:03;10.6;;;4.9;;
69404;SDS011;57084;52.046;5.632;2022-08-19T02:00:00;8.5;;;4.4;;
69404;SDS011;57084;52.046;5.632;2022-08-19T02:01:00;8.5;;;4.4;;
69404;SDS011;57084;52.046;5.632;2022-08-19T02:02:00;8.5;;;4.4;;
69404;SDS011;57084;52.046;5.632;2022-08-19T02:03:00;8.5;;;4.4;;
69404;SDS011;57084;52.046;5.632;2022-08-19T02:04:00;8.5;;;4.4;;
69404;SDS011;57084;52.046;5.632;2022-08-19T02:05:00;8.5;;;4.6;;
69404;SDS011;57084;52.046;5.632;2022-08-19T02:06:01;8.5;;;4.6;;
69404;SDS011;57084;52.046;5.632;2022-08-19T02:07:00;8.5;;;4.6;;
69404;SDS011;57084;52.046;5.632;2022-08-19T02:08:00;8.5;;;4.6;;
69404;SDS011;57084;52.046;5.632;2022-08-19T02:09:00;8.5;;;4.6;;
69404;SDS011;57084;52.046;5.632;2022-08-19T02:10:00;9.7;;;5.1;;
69404;SDS011;57084;52.046;5.632;2022-08-19T02:11:00;9.7;;;5.1;;
69404;SDS011;57084;52.046;5.632;2022-08-19T02:12:00;9.7;;;5.1;;
69404;SDS011;57084;52.046;5.632;2022-08-19T02:13:00;9.7;;;5.1;;
69404;SDS011;57084;52.046;5.632;2022-08-19T02:14:02;9.7;;;5.1;;
69404;SDS011;57084;52.046;5.632;2022-08-19T02:15:00;11.2;;;5.0;;
69404;SDS011;57084;52.046;5.632;2022-08-19T02:16:00;11.2;;;5.0;;
69404;SDS011;57084;52.046;5.632;2022-08-19T02:17:00;11.2;;;5.0;;
69404;SDS011;57084;52.046;5.632;2022-08-19T02:18:00;11.2;;;5.0;;
69404;SDS011;57084;52.046;5.632;2022-08-19T02:19:00;11.2;;;5.0;;
69404;SDS011;57084;52.046;5.632;2022-08-19T02:20:00;9.4;;;4.9;;
69404;SDS011;57084;52.046;5.632;2022-08-19T02:21:00;9.4;;;4.9;;
69404;SDS011;57084;52.046;5.632;2022-08-19T02:22:00;9.4;;;4.9;;
69404;SDS011;57084;52.046;5.632;2022-08-19T02:23:00;9.4;;;4.9;;
69404;SDS011;57084;52.046;5.632;2022-08-19T02:24:00;9.4;;;4.9;;
69404;SDS011;57084;52.046;5.632;2022-08-19T02:25:00;8.5;;;4.7;;
69404;SDS011;57084;52.046;5.632;2022-08-19T02:26:00;8.5;;;4.7;;
69404;SDS011;57084;52.046;5.632;2022-08-19T02:27:00;8.5;;;4.7;;
69404;SDS011;57084;52.046;5.632;2022-08-19T02:28:00;8.5;;;4.7;;
69404;SDS011;57084;52.046;5.632;2022-08-19T02:29:00;8.5;;;4.7;;
69404;SDS011;57084;52.046;5.632;2022-08-19T02:30:00;9.0;;;4.9;;
69404;SDS011;57084;52.046;5.632;2022-08-19T02:31:00;9.0;;;4.9;;
69404;SDS011;57084;52.046;5.632;2022-08-19T02:32:00;9.0;;;4.9;;
69404;SDS011;57084;52.046;5.632;2022-08-19T02:33:00;9.0;;;4.9;;
69404;SDS011;57084;52.046;5.632;2022-08-19T02:34:00;9.0;;;4.9;;
69404;SDS011;57084;52.046;5.632;2022-08-19T02:35:00;9.3;;;5.0;;
69404;SDS011;57084;52.046;5.632;2022-08-19T02:36:03;9.3;;;5.0;;
69404;SDS011;57084;52.046;5.632;2022-08-19T02:37:00;9.3;;;5.0;;
69404;SDS011;57084;52.046;5.632;2022-08-19T02:38:00;9.3;;;5.0;;
69404;SDS011;57084;52.046;5.632;2022-08-19T02:39:00;9.3;;;5.0;;
69404;SDS011;57084;52.046;5.632;2022-08-19T02:40:00;8.8;;;4.8;;
69404;SDS011;57084;52.046;5.632;2022-08-19T02:41:02;8.8;;;4.8;;
69404;SDS011;57084;52.046;5.632;2022-08-19T02:42:00;8.8;;;4.8;;
69404;SDS011;57084;52.046;5.632;2022-08-19T02:43:00;8.8;;;4.8;;
69404;SDS011;57084;52.046;5.632;2022-08-19T02:44:03;8.8;;;4.8;;
69404;SDS011;57084;52.046;5.632;2022-08-19T02:45:00;10.1;;;5.3;;
69404;SDS011;57084;52.046;5.632;2022-08-19T02:46:00;10.1;;;5.3;;
69404;SDS011;57084;52.046;5.632;2022-08-19T02:47:00;10.1;;;5.3;;
69404;SDS011;57084;52.046;5.632;2022-08-19T02:48:00;10.1;;;5.3;;
69404;SDS011;57084;52.046;5.632;2022-08-19T02:49:02;10.1;;;5.3;;
69404;SDS011;57084;52.046;5.632;2022-08-19T02:50:01;10.0;;;5.2;;
69404;SDS011;57084;52.046;5.632;2022-08-19T02:51:00;10.0;;;5.2;;
69404;SDS011;57084;52.046;5.632;2022-08-19T02:52:00;10.0;;;5.2;;
69404;SDS011;57084;52.046;5.632;2022-08-19T02:53:00;10.0;;;5.2;;
69404;SDS011;57084;52.046;5.632;2022-08-19T02:54:01;10.0;;;5.2;;
69404;SDS011;57084;52.046;5.632;2022-08-19T02:55:00;10.1;;;5.3;;
69404;SDS011;57084;52.046;5.632;2022-08-19T02:56:00;10.1;;;5.3;;
69404;SDS011;57084;52.046;5.632;2022-08-19T02:57:00;10.1;;;5.3;;
69404;SDS011;57084;52.046;5.632;2022-08-19T02:58:00;10.1;;;5.3;;
69404;SDS011;57084;52.046;5.632;2022-08-19T02:59:00;10.1;;;5.3;;
69404;SDS011;57084;52.046;5.632;2022-08-19T03:00:00;9.2;;;4.7;;
69404;SDS011;57084;52.046;5.632;2022-08-19T03:01:00;9.2;;;4.7;;
69404;SDS011;57084;52.046;5.632;2022-08-19T03:02:00;9.2;;;4.7;;
69404;SDS011;57084;52.046;5.632;2022-08-19T03:03:00;9.2;;;4.7;;
69404;SDS011;57084;52.046;5.632;2022-08-19T03:04:03;9.2;;;4.7;;
69404;SDS011;57084;52.046;5.632;2022-08-19T03:05:02;8.8;;;4.8;;
69404;SDS011;57084;52.046;5.632;2022-08-19T03:06:06;8.8;;;4.8;;
69404;SDS011;57084;52.046;5.632;2022-08-19T03:07:00;8.8;;;4.8;;
69404;SDS011;57084;52.046;5.632;2022-08-19T03:08:00;8.8;;;4.8;;
69404;SDS011;57084;52.046;5.632;2022-08-19T03:09:00;8.8;;;4.8;;
69404;SDS011;57084;52.046;5.632;2022-08-19T03:10:00;11.6;;;4.9;;
69404;SDS011;57084;52.046;5.632;2022-08-19T03:11:00;11.6;;;4.9;;
69404;SDS011;57084;52.046;5.632;2022-08-19T03:12:00;11.6;;;4.9;;
69404;SDS011;57084;52.046;5.632;2022-08-19T03:13:00;11.6;;;4.9;;
69404;SDS011;57084;52.046;5.632;2022-08-19T03:14:01;11.6;;;4.9;;
69404;SDS011;57084;52.046;5.632;2022-08-19T03:15:00;9.8;;;5.4;;
69404;SDS011;57084;52.046;5.632;2022-08-19T03:16:04;9.8;;;5.4;;
69404;SDS011;57084;52.046;5.632;2022-08-19T03:17:00;9.8;;;5.4;;
69404;SDS011;57084;52.046;5.632;2022-08-19T03:18:00;9.8;;;5.4;;
69404;SDS011;57084;52.046;5.632;2022-08-19T03:19:02;9.8;;;5.4;;
69404;SDS011;57084;52.046;5.632;2022-08-19T03:20:01;9.9;;;5.0;;
69404;SDS011;57084;52.046;5.632;2022-08-19T03:21:00;9.9;;;5.0;;
69404;SDS011;57084;52.046;5.632;2022-08-19T03:22:00;9.9;;;5.0;;
69404;SDS011;57084;52.046;5.632;2022-08-19T03:23:00;9.9;;;5.0;;
69404;SDS011;57084;52.046;5.632;2022-08-19T03:24:05;9.9;;;5.0;;
69404;SDS011;57084;52.046;5.632;2022-08-19T03:25:00;10.0;;;5.4;;
69404;SDS011;57084;52.046;5.632;2022-08-19T03:26:03;10.0;;;5.4;;
69404;SDS011;57084;52.046;5.632;2022-08-19T03:27:00;10.0;;;5.4;;
69404;SDS011;57084;52.046;5.632;2022-08-19T03:28:00;10.0;;;5.4;;
69404;SDS011;57084;52.046;5.632;2022-08-19T03:29:01;10.0;;;5.4;;
69404;SDS011;57084;52.046;5.632;2022-08-19T03:30:00;9.5;;;5.4;;
69404;SDS011;57084;52.046;5.632;2022-08-19T03:31:03;9.5;;;5.4;;
69404;SDS011;57084;52.046;5.632;2022-08-19T03:32:03;9.5;;;5.4;;
69404;SDS011;57084;52.046;5.632;2022-08-19T03:33:00;9.5;;;5.4;;
69404;SDS011;57084;52.046;5.632;2022-08-19T03:34:00;9.5;;;5.4;;
69404;SDS011;57084;52.046;5.632;2022-08-19T03:35:00;10.6;;;5.1;;
69404;SDS011;57084;52.046;5.632;2022-08-19T03:36:02;10.6;;;5.1;;
69404;SDS011;57084;52.046;5.632;2022-08-19T03:37:04;10.6;;;5.1;;
69404;SDS011;57084;52.046;5.632;2022-08-19T03:38:00;10.6;;;5.1;;
69404;SDS011;57084;52.046;5.632;2022-08-19T03:39:00;10.6;;;5.1;;
69404;SDS011;57084;52.046;5.632;2022-08-19T03:40:00;10.9;;;5.2;;
69404;SDS011;57084;52.046;5.632;2022-08-19T03:41:02;10.9;;;5.2;;
69404;SDS011;57084;52.046;5.632;2022-08-19T03:42:00;10.9;;;5.2;;
69404;SDS011;57084;52.046;5.632;2022-08-19T03:43:00;10.9;;;5.2;;
69404;SDS011;57084;52.046;5.632;2022-08-19T03:44:00;10.9;;;5.2;;
69404;SDS011;57084;52.046;5.632;2022-08-19T03:45:00;10.4;;;5.5;;
69404;SDS011;57084;52.046;5.632;2022-08-19T03:46:02;10.4;;;5.5;;
69404;SDS011;57084;52.046;5.632;2022-08-19T03:47:00;10.4;;;5.5;;
69404;SDS011;57084;52.046;5.632;2022-08-19T03:48:00;10.4;;;5.5;;
69404;SDS011;57084;52.046;5.632;2022-08-19T03:49:02;10.4;;;5.5;;
69404;SDS011;57084;52.046;5.632;2022-08-19T03:50:00;11.5;;;5.3;;
69404;SDS011;57084;52.046;5.632;2022-08-19T03:51:00;11.5;;;5.3;;
69404;SDS011;57084;52.046;5.632;2022-08-19T03:52:00;11.5;;;5.3;;
69404;SDS011;57084;52.046;5.632;2022-08-19T03:53:00;11.5;;;5.3;;
69404;SDS011;57084;52.046;5.632;2022-08-19T03:54:02;11.5;;;5.3;;
69404;SDS011;57084;52.046;5.632;2022-08-19T03:55:00;10.5;;;5.8;;
69404;SDS011;57084;52.046;5.632;2022-08-19T03:56:00;10.5;;;5.8;;
69404;SDS011;57084;52.046;5.632;2022-08-19T03:57:00;10.5;;;5.8;;
69404;SDS011;57084;52.046;5.632;2022-08-19T03:58:00;10.5;;;5.8;;
69404;SDS011;57084;52.046;5.632;2022-08-19T03:59:00;10.5;;;5.8;;
69404;SDS011;57084;52.046;5.632;2022-08-19T04:00:00;10.5;;;5.8;;
69404;SDS011;57084;52.046;5.632;2022-08-19T04:01:00;11.3;;;6.3;;
69404;SDS011;57084;52.046;5.632;2022-08-19T04:02:02;11.3;;;6.3;;
69404;SDS011;57084;52.046;5.632;2022-08-19T04:03:00;11.3;;;6.3;;
69404;SDS011;57084;52.046;5.632;2022-08-19T04:04:00;11.3;;;6.3;;
69404;SDS011;57084;52.046;5.632;2022-08-19T04:05:00;11.3;;;6.3;;
69404;SDS011;57084;52.046;5.632;2022-08-19T04:06:08;12.0;;;6.7;;
69404;SDS011;57084;52.046;5.632;2022-08-19T04:07:00;12.0;;;6.7;;
69404;SDS011;57084;52.046;5.632;2022-08-19T04:08:00;12.0;;;6.7;;
69404;SDS011;57084;52.046;5.632;2022-08-19T04:09:03;12.0;;;6.7;;
69404;SDS011;57084;52.046;5.632;2022-08-19T04:10:00;12.0;;;6.7;;
69404;SDS011;57084;52.046;5.632;2022-08-19T04:11:00;13.3;;;6.2;;
69404;SDS011;57084;52.046;5.632;2022-08-19T04:12:00;13.3;;;6.2;;
69404;SDS011;57084;52.046;5.632;2022-08-19T04:13:00;13.3;;;6.2;;
69404;SDS011;57084;52.046;5.632;2022-08-19T04:14:00;13.3;;;6.2;;
69404;SDS011;57084;52.046;5.632;2022-08-19T04:15:00;13.3;;;6.2;;
69404;SDS011;57084;52.046;5.632;2022-08-19T04:16:00;13.6;;;6.7;;
69404;SDS011;57084;52.046;5.632;2022-08-19T04:17:01;13.6;;;6.7;;
69404;SDS011;57084;52.046;5.632;2022-08-19T04:18:00;13.6;;;6.7;;
69404;SDS011;57084;52.046;5.632;2022-08-19T04:19:02;13.6;;;6.7;;
69404;SDS011;57084;52.046;5.632;2022-08-19T04:20:00;13.6;;;6.7;;
69404;SDS011;57084;52.046;5.632;2022-08-19T04:21:00;15.3;;;6.9;;
69404;SDS011;57084;52.046;5.632;2022-08-19T04:22:00;15.3;;;6.9;;
69404;SDS011;57084;52.046;5.632;2022-08-19T04:23:00;15.3;;;6.9;;
69404;SDS011;57084;52.046;5.632;2022-08-19T04:24:00;15.3;;;6.9;;
69404;SDS011;57084;52.046;5.632;2022-08-19T04:25:00;15.3;;;6.9;;
69404;SDS011;57084;52.046;5.632;2022-08-19T04:26:00;12.5;;;6.9;;
69404;SDS011;57084;52.046;5.632;2022-08-19T04:27:00;12.5;;;6.9;;
69404;SDS011;57084;52.046;5.632;2022-08-19T04:28:00;12.5;;;6.9;;
69404;SDS011;57084;52.046;5.632;2022-08-19T04:29:01;12.5;;;6.9;;
69404;SDS011;57084;52.046;5.632;2022-08-19T04:30:00;12.5;;;6.9;;
69404;SDS011;57084;52.046;5.632;2022-08-19T04:31:00;12.8;;;7.1;;
69404;SDS011;57084;52.046;5.632;2022-08-19T04:32:00;12.8;;;7.1;;
69404;SDS011;57084;52.046;5.632;2022-08-19T04:33:00;12.8;;;7.1;;
69404;SDS011;57084;52.046;5.632;2022-08-19T04:34:00;12.8;;;7.1;;
69404;SDS011;57084;52.046;5.632;2022-08-19T04:35:00;12.8;;;7.1;;
69404;SDS011;57084;52.046;5.632;2022-08-19T04:36:00;14.3;;;7.0;;
69404;SDS011;57084;52.046;5.632;2022-08-19T04:37:00;14.3;;;7.0;;
69404;SDS011;57084;52.046;5.632;2022-08-19T04:38:00;14.3;;;7.0;;
69404;SDS011;57084;52.046;5.632;2022-08-19T04:39:04;14.3;;;7.0;;
69404;SDS011;57084;52.046;5.632;2022-08-19T04:40:00;14.3;;;7.0;;
69404;SDS011;57084;52.046;5.632;2022-08-19T04:41:02;10.8;;;6.2;;
69404;SDS011;57084;52.046;5.632;2022-08-19T04:42:00;10.8;;;6.2;;
69404;SDS011;57084;52.046;5.632;2022-08-19T04:43:00;10.8;;;6.2;;
69404;SDS011;57084;52.046;5.632;2022-08-19T04:44:00;10.8;;;6.2;;
69404;SDS011;57084;52.046;5.632;2022-08-19T04:45:00;10.8;;;6.2;;
69404;SDS011;57084;52.046;5.632;2022-08-19T04:46:04;11.8;;;6.2;;
69404;SDS011;57084;52.046;5.632;2022-08-19T04:47:00;11.8;;;6.2;;
69404;SDS011;57084;52.046;5.632;2022-08-19T04:48:00;11.8;;;6.2;;
69404;SDS011;57084;52.046;5.632;2022-08-19T04:49:02;11.8;;;6.2;;
69404;SDS011;57084;52.046;5.632;2022-08-19T04:50:00;11.8;;;6.2;;
69404;SDS011;57084;52.046;5.632;2022-08-19T04:51:00;12.4;;;6.7;;
69404;SDS011;57084;52.046;5.632;2022-08-19T04:52:00;12.4;;;6.7;;
69404;SDS011;57084;52.046;5.632;2022-08-19T04:53:00;12.4;;;6.7;;
69404;SDS011;57084;52.046;5.632;2022-08-19T04:54:01;12.4;;;6.7;;
69404;SDS011;57084;52.046;5.632;2022-08-19T04:55:00;12.4;;;6.7;;
69404;SDS011;57084;52.046;5.632;2022-08-19T04:56:04;13.7;;;6.9;;
69404;SDS011;57084;52.046;5.632;2022-08-19T04:57:00;13.7;;;6.9;;
69404;SDS011;57084;52.046;5.632;2022-08-19T04:58:00;13.7;;;6.9;;
69404;SDS011;57084;52.046;5.632;2022-08-19T04:59:00;13.7;;;6.9;;
69404;SDS011;57084;52.046;5.632;2022-08-19T05:00:00;13.7;;;6.9;;
69404;SDS011;57084;52.046;5.632;2022-08-19T05:01:00;12.8;;;6.6;;
69404;SDS011;57084;52.046;5.632;2022-08-19T05:02:00;12.8;;;6.6;;
69404;SDS011;57084;52.046;5.632;2022-08-19T05:03:00;12.8;;;6.6;;
69404;SDS011;57084;52.046;5.632;2022-08-19T05:04:00;12.8;;;6.6;;
69404;SDS011;57084;52.046;5.632;2022-08-19T05:05:00;12.8;;;6.6;;
69404;SDS011;57084;52.046;5.632;2022-08-19T05:06:04;11.3;;;6.8;;
69404;SDS011;57084;52.046;5.632;2022-08-19T05:07:00;11.3;;;6.8;;
69404;SDS011;57084;52.046;5.632;2022-08-19T05:08:00;11.3;;;6.8;;
69404;SDS011;57084;52.046;5.632;2022-08-19T05:09:00;11.3;;;6.8;;
69404;SDS011;57084;52.046;5.632;2022-08-19T05:10:00;11.3;;;6.8;;
69404;SDS011;57084;52.046;5.632;2022-08-19T05:11:00;13.8;;;7.4;;
69404;SDS011;57084;52.046;5.632;2022-08-19T05:12:00;13.8;;;7.4;;
69404;SDS011;57084;52.046;5.632;2022-08-19T05:13:00;13.8;;;7.4;;
69404;SDS011;57084;52.046;5.632;2022-08-19T05:14:00;13.8;;;7.4;;
69404;SDS011;57084;52.046;5.632;2022-08-19T05:15:02;13.8;;;7.4;;
69404;SDS011;57084;52.046;5.632;2022-08-19T05:16:00;13.0;;;7.1;;
69404;SDS011;57084;52.046;5.632;2022-08-19T05:17:00;13.0;;;7.1;;
69404;SDS011;57084;52.046;5.632;2022-08-19T05:18:00;13.0;;;7.1;;
69404;SDS011;57084;52.046;5.632;2022-08-19T05:19:00;13.0;;;7.1;;
69404;SDS011;57084;52.046;5.632;2022-08-19T05:20:00;13.0;;;7.1;;
69404;SDS011;57084;52.046;5.632;2022-08-19T05:21:05;13.0;;;7.4;;
69404;SDS011;57084;52.046;5.632;2022-08-19T05:22:00;13.0;;;7.4;;
69404;SDS011;57084;52.046;5.632;2022-08-19T05:23:00;13.0;;;7.4;;
69404;SDS011;57084;52.046;5.632;2022-08-19T05:24:00;13.0;;;7.4;;
69404;SDS011;57084;52.046;5.632;2022-08-19T05:25:03;13.0;;;7.4;;
69404;SDS011;57084;52.046;5.632;2022-08-19T05:26:00;14.9;;;7.1;;
69404;SDS011;57084;52.046;5.632;2022-08-19T05:27:01;14.9;;;7.1;;
69404;SDS011;57084;52.046;5.632;2022-08-19T05:28:00;14.9;;;7.1;;
69404;SDS011;57084;52.046;5.632;2022-08-19T05:29:00;14.9;;;7.1;;
69404;SDS011;57084;52.046;5.632;2022-08-19T05:30:00;14.9;;;7.1;;
69404;SDS011;57084;52.046;5.632;2022-08-19T05:31:00;14.5;;;7.8;;
69404;SDS011;57084;52.046;5.632;2022-08-19T05:32:01;14.5;;;7.8;;
69404;SDS011;57084;52.046;5.632;2022-08-19T05:33:00;14.5;;;7.8;;
69404;SDS011;57084;52.046;5.632;2022-08-19T05:34:00;14.5;;;7.8;;
69404;SDS011;57084;52.046;5.632;2022-08-19T05:35:00;14.5;;;7.8;;
69404;SDS011;57084;52.046;5.632;2022-08-19T05:36:00;14.2;;;7.2;;
69404;SDS011;57084;52.046;5.632;2022-08-19T05:37:01;14.2;;;7.2;;
69404;SDS011;57084;52.046;5.632;2022-08-19T05:38:00;14.2;;;7.2;;
69404;SDS011;57084;52.046;5.632;2022-08-19T05:39:00;14.2;;;7.2;;
69404;SDS011;57084;52.046;5.632;2022-08-19T05:40:00;14.2;;;7.2;;
69404;SDS011;57084;52.046;5.632;2022-08-19T05:41:00;14.6;;;8.2;;
69404;SDS011;57084;52.046;5.632;2022-08-19T05:42:02;14.6;;;8.2;;
69404;SDS011;57084;52.046;5.632;2022-08-19T05:43:00;14.6;;;8.2;;
69404;SDS011;57084;52.046;5.632;2022-08-19T05:44:03;14.6;;;8.2;;
69404;SDS011;57084;52.046;5.632;2022-08-19T05:45:00;14.6;;;8.2;;
69404;SDS011;57084;52.046;5.632;2022-08-19T05:46:00;17.9;;;9.2;;
69404;SDS011;57084;52.046;5.632;2022-08-19T05:47:01;17.9;;;9.2;;
69404;SDS011;57084;52.046;5.632;2022-08-19T05:48:00;17.9;;;9.2;;
69404;SDS011;57084;52.046;5.632;2022-08-19T05:49:00;17.9;;;9.2;;
69404;SDS011;57084;52.046;5.632;2022-08-19T05:50:00;17.9;;;9.2;;
69404;SDS011;57084;52.046;5.632;2022-08-19T05:51:03;15.7;;;9.0;;
69404;SDS011;57084;52.046;5.632;2022-08-19T05:52:02;15.7;;;9.0;;
69404;SDS011;57084;52.046;5.632;2022-08-19T05:53:00;15.7;;;9.0;;
69404;SDS011;57084;52.046;5.632;2022-08-19T05:54:00;15.7;;;9.0;;
69404;SDS011;57084;52.046;5.632;2022-08-19T05:55:00;15.7;;;9.0;;
69404;SDS011;57084;52.046;5.632;2022-08-19T05:56:03;16.1;;;9.0;;
69404;SDS011;57084;52.046;5.632;2022-08-19T05:57:00;16.1;;;9.0;;
69404;SDS011;57084;52.046;5.632;2022-08-19T05:58:00;16.1;;;9.0;;
69404;SDS011;57084;52.046;5.632;2022-08-19T05:59:00;16.1;;;9.0;;
69404;SDS011;57084;52.046;5.632;2022-08-19T06:00:00;16.1;;;9.0;;
69404;SDS011;57084;52.046;5.632;2022-08-19T06:01:00;17.7;;;9.7;;
69404;SDS011;57084;52.046;5.632;2022-08-19T06:02:00;17.7;;;9.7;;
69404;SDS011;57084;52.046;5.632;2022-08-19T06:03:00;17.7;;;9.7;;
69404;SDS011;57084;52.046;5.632;2022-08-19T06:04:00;17.7;;;9.7;;
69404;SDS011;57084;52.046;5.632;2022-08-19T06:05:00;17.7;;;9.7;;
69404;SDS011;57084;52.046;5.632;2022-08-19T06:06:00;22.3;;;10.4;;
69404;SDS011;57084;52.046;5.632;2022-08-19T06:07:00;22.3;;;10.4;;
69404;SDS011;57084;52.046;5.632;2022-08-19T06:08:00;22.3;;;10.4;;
69404;SDS011;57084;52.046;5.632;2022-08-19T06:09:00;22.3;;;10.4;;